Terminal Aerodrome Forecast
Issued by NWS

Home | Current Version | Previous Version | Text Only | Print | Product List | Glossary On
Versions: 1 2 3 4 5 6 7 8 9 10 11 12 13 14 15 16 17 18 19 20 21 22 23 24 25 26 27 28 29 30 31 32 33 34 35 36 37 38 39 40 41
000
FTUS44 KFWD 191130
TAFGKY
TAF
KGKY 191130Z 1912/2012 17007KT P6SM SCT025 SCT035
      TEMPO 1912/1915 BKN025
     FM191600 22010KT P6SM FEW035
     FM191900 26015G25KT P6SM SKC
     FM192300 30016G26KT P6SM SKC
     FM200200 33015KT P6SM SKC=

USA.gov is the U.S. government's official web portal to all federal, state and local government web resources and services.